sensor_id;sensor_type;location;lat;lon;timestamp;P1;durP1;ratioP1;P2;durP2;ratioP2
14171;SDS011;7165;52.388;4.928;2023-06-14T08:14:19;14.10;;;9.98;;
14171;SDS011;7165;52.388;4.928;2023-06-14T08:16:47;20.00;;;8.82;;
14171;SDS011;7165;52.388;4.928;2023-06-14T08:19:14;10.75;;;8.13;;
14171;SDS011;7165;52.388;4.928;2023-06-14T08:21:41;11.65;;;6.32;;
14171;SDS011;7165;52.388;4.928;2023-06-14T08:24:08;9.10;;;5.50;;
14171;SDS011;7165;52.388;4.928;2023-06-14T08:26:37;9.02;;;5.85;;
14171;SDS011;7165;52.388;4.928;2023-06-14T08:29:04;15.65;;;10.93;;
14171;SDS011;7165;52.388;4.928;2023-06-14T08:31:31;14.68;;;11.52;;
14171;SDS011;7165;52.388;4.928;2023-06-14T08:33:59;8.80;;;7.53;;
14171;SDS011;7165;52.388;4.928;2023-06-14T08:36:26;4.28;;;3.28;;
14171;SDS011;7165;52.388;4.928;2023-06-14T08:38:53;11.95;;;7.40;;
14171;SDS011;7165;52.388;4.928;2023-06-14T08:41:21;9.55;;;5.32;;
14171;SDS011;7165;52.388;4.928;2023-06-14T08:43:49;8.70;;;6.60;;
14171;SDS011;7165;52.388;4.928;2023-06-14T08:46:17;11.35;;;8.85;;
14171;SDS011;7165;52.388;4.928;2023-06-14T08:48:45;14.07;;;9.60;;
14171;SDS011;7165;52.388;4.928;2023-06-14T08:51:14;5.10;;;4.38;;
14171;SDS011;7165;52.388;4.928;2023-06-14T08:53:44;10.15;;;8.57;;
14171;SDS011;7165;52.388;4.928;2023-06-14T08:56:11;9.18;;;5.90;;
14171;SDS011;7165;52.388;4.928;2023-06-14T08:58:38;6.90;;;4.95;;
14171;SDS011;7165;52.388;4.928;2023-06-14T09:01:08;18.70;;;13.40;;
14171;SDS011;7165;52.388;4.928;2023-06-14T09:03:37;16.55;;;11.48;;
14171;SDS011;7165;52.388;4.928;2023-06-14T09:06:05;8.57;;;3.25;;
14171;SDS011;7165;52.388;4.928;2023-06-14T09:08:35;4.20;;;2.65;;
14171;SDS011;7165;52.388;4.928;2023-06-14T09:11:05;3.78;;;2.78;;
14171;SDS011;7165;52.388;4.928;2023-06-14T09:13:32;2.72;;;2.47;;
14171;SDS011;7165;52.388;4.928;2023-06-14T09:15:59;2.50;;;2.10;;
14171;SDS011;7165;52.388;4.928;2023-06-14T09:18:33;2.75;;;2.50;;
14171;SDS011;7165;52.388;4.928;2023-06-14T09:21:01;3.25;;;2.40;;
14171;SDS011;7165;52.388;4.928;2023-06-14T09:23:27;3.78;;;2.90;;
14171;SDS011;7165;52.388;4.928;2023-06-14T09:25:55;4.72;;;2.65;;
14171;SDS011;7165;52.388;4.928;2023-06-14T09:28:26;8.60;;;6.90;;
14171;SDS011;7165;52.388;4.928;2023-06-14T09:30:54;4.88;;;2.53;;
14171;SDS011;7165;52.388;4.928;2023-06-14T09:33:21;3.05;;;2.65;;
14171;SDS011;7165;52.388;4.928;2023-06-14T09:35:50;5.88;;;5.28;;
14171;SDS011;7165;52.388;4.928;2023-06-14T09:38:17;6.88;;;5.13;;
14171;SDS011;7165;52.388;4.928;2023-06-14T09:40:44;4.97;;;3.90;;
14171;SDS011;7165;52.388;4.928;2023-06-14T09:43:12;4.93;;;2.55;;
14171;SDS011;7165;52.388;4.928;2023-06-14T09:45:39;4.78;;;3.28;;
14171;SDS011;7165;52.388;4.928;2023-06-14T09:48:06;5.45;;;3.17;;
14171;SDS011;7165;52.388;4.928;2023-06-14T09:50:33;3.20;;;2.25;;
14171;SDS011;7165;52.388;4.928;2023-06-14T09:53:02;4.32;;;2.45;;
14171;SDS011;7165;52.388;4.928;2023-06-14T09:55:31;3.42;;;2.03;;
14171;SDS011;7165;52.388;4.928;2023-06-14T09:58:03;3.65;;;2.40;;
14171;SDS011;7165;52.388;4.928;2023-06-14T10:00:33;2.78;;;2.10;;
14171;SDS011;7165;52.388;4.928;2023-06-14T10:03:02;2.72;;;2.22;;
14171;SDS011;7165;52.388;4.928;2023-06-14T10:05:32;2.63;;;1.70;;
14171;SDS011;7165;52.388;4.928;2023-06-14T10:08:04;4.05;;;2.10;;
14171;SDS011;7165;52.388;4.928;2023-06-14T10:10:33;2.88;;;1.80;;
14171;SDS011;7165;52.388;4.928;2023-06-14T10:13:00;4.22;;;2.20;;
14171;SDS011;7165;52.388;4.928;2023-06-14T10:15:29;1.80;;;1.70;;
14171;SDS011;7165;52.388;4.928;2023-06-14T10:18:06;3.28;;;2.20;;
14171;SDS011;7165;52.388;4.928;2023-06-14T10:20:42;2.53;;;2.35;;
14171;SDS011;7165;52.388;4.928;2023-06-14T10:23:16;5.40;;;3.22;;
14171;SDS011;7165;52.388;4.928;2023-06-14T10:25:49;4.15;;;1.85;;
14171;SDS011;7165;52.388;4.928;2023-06-14T10:28:16;6.85;;;4.72;;
14171;SDS011;7165;52.388;4.928;2023-06-14T10:33:31;2.97;;;2.67;;
14171;SDS011;7165;52.388;4.928;2023-06-14T10:36:10;4.00;;;2.20;;
14171;SDS011;7165;52.388;4.928;2023-06-14T10:38:59;3.03;;;2.17;;
14171;SDS011;7165;52.388;4.928;2023-06-14T10:41:28;4.22;;;2.20;;
14171;SDS011;7165;52.388;4.928;2023-06-14T10:47:06;3.75;;;2.20;;
14171;SDS011;7165;52.388;4.928;2023-06-14T10:49:41;4.28;;;2.15;;
14171;SDS011;7165;52.388;4.928;2023-06-14T10:52:11;2.40;;;1.98;;
14171;SDS011;7165;52.388;4.928;2023-06-14T10:54:55;2.65;;;1.98;;
14171;SDS011;7165;52.388;4.928;2023-06-14T10:57:22;3.22;;;2.10;;
14171;SDS011;7165;52.388;4.928;2023-06-14T10:59:49;3.95;;;2.58;;
14171;SDS011;7165;52.388;4.928;2023-06-14T11:02:26;5.55;;;2.35;;
14171;SDS011;7165;52.388;4.928;2023-06-14T11:07:48;5.70;;;2.60;;
14171;SDS011;7165;52.388;4.928;2023-06-14T11:10:40;1.92;;;1.83;;
14171;SDS011;7165;52.388;4.928;2023-06-14T11:13:07;2.35;;;2.15;;
14171;SDS011;7165;52.388;4.928;2023-06-14T11:15:34;3.33;;;2.28;;
14171;SDS011;7165;52.388;4.928;2023-06-14T11:18:04;4.82;;;2.35;;
14171;SDS011;7165;52.388;4.928;2023-06-14T11:20:32;3.22;;;2.20;;
14171;SDS011;7165;52.388;4.928;2023-06-14T11:23:00;2.85;;;2.45;;
14171;SDS011;7165;52.388;4.928;2023-06-14T11:25:27;3.53;;;2.30;;
14171;SDS011;7165;52.388;4.928;2023-06-14T11:27:54;4.28;;;2.10;;
14171;SDS011;7165;52.388;4.928;2023-06-14T11:30:21;2.55;;;2.35;;
14171;SDS011;7165;52.388;4.928;2023-06-14T11:32:50;2.85;;;2.00;;
14171;SDS011;7165;52.388;4.928;2023-06-14T11:35:20;3.40;;;1.85;;
14171;SDS011;7165;52.388;4.928;2023-06-14T11:37:48;4.70;;;2.10;;
14171;SDS011;7165;52.388;4.928;2023-06-14T11:40:18;3.35;;;1.65;;
14171;SDS011;7165;52.388;4.928;2023-06-14T11:42:45;2.17;;;1.98;;
14171;SDS011;7165;52.388;4.928;2023-06-14T11:45:12;1.65;;;1.55;;
14171;SDS011;7165;52.388;4.928;2023-06-14T11:47:39;3.55;;;1.92;;
14171;SDS011;7165;52.388;4.928;2023-06-14T11:50:07;4.05;;;2.53;;
14171;SDS011;7165;52.388;4.928;2023-06-14T11:52:37;3.10;;;2.25;;
14171;SDS011;7165;52.388;4.928;2023-06-14T11:55:04;3.95;;;1.90;;
14171;SDS011;7165;52.388;4.928;2023-06-14T11:57:33;2.85;;;1.88;;
14171;SDS011;7165;52.388;4.928;2023-06-14T12:00:03;2.38;;;2.15;;
14171;SDS011;7165;52.388;4.928;2023-06-14T12:02:32;2.25;;;1.90;;
14171;SDS011;7165;52.388;4.928;2023-06-14T12:05:03;2.25;;;2.05;;
14171;SDS011;7165;52.388;4.928;2023-06-14T12:07:30;2.13;;;1.85;;
14171;SDS011;7165;52.388;4.928;2023-06-14T12:10:05;3.58;;;1.98;;
14171;SDS011;7165;52.388;4.928;2023-06-14T12:12:34;2.85;;;1.80;;
14171;SDS011;7165;52.388;4.928;2023-06-14T12:15:03;2.30;;;2.10;;
14171;SDS011;7165;52.388;4.928;2023-06-14T12:17:31;2.45;;;2.25;;
14171;SDS011;7165;52.388;4.928;2023-06-14T12:19:58;2.50;;;2.25;;
14171;SDS011;7165;52.388;4.928;2023-06-14T12:22:31;5.20;;;2.40;;
14171;SDS011;7165;52.388;4.928;2023-06-14T12:24:58;2.20;;;2.00;;
14171;SDS011;7165;52.388;4.928;2023-06-14T12:27:26;2.85;;;1.90;;
14171;SDS011;7165;52.388;4.928;2023-06-14T12:29:58;2.45;;;1.88;;
14171;SDS011;7165;52.388;4.928;2023-06-14T12:32:26;2.83;;;2.10;;
14171;SDS011;7165;52.388;4.928;2023-06-14T12:34:52;2.72;;;1.90;;
14171;SDS011;7165;52.388;4.928;2023-06-14T12:37:19;3.38;;;2.25;;
14171;SDS011;7165;52.388;4.928;2023-06-14T12:39:46;3.88;;;2.20;;
14171;SDS011;7165;52.388;4.928;2023-06-14T12:42:13;5.45;;;2.05;;
14171;SDS011;7165;52.388;4.928;2023-06-14T12:44:42;5.35;;;2.53;;
14171;SDS011;7165;52.388;4.928;2023-06-14T12:47:08;4.13;;;1.75;;
14171;SDS011;7165;52.388;4.928;2023-06-14T12:49:35;4.07;;;2.00;;
14171;SDS011;7165;52.388;4.928;2023-06-14T12:52:02;4.50;;;1.73;;
14171;SDS011;7165;52.388;4.928;2023-06-14T12:54:28;2.42;;;1.88;;
14171;SDS011;7165;52.388;4.928;2023-06-14T12:56:55;5.55;;;2.05;;
14171;SDS011;7165;52.388;4.928;2023-06-14T12:59:22;4.63;;;1.77;;
14171;SDS011;7165;52.388;4.928;2023-06-14T13:01:50;4.57;;;1.77;;
14171;SDS011;7165;52.388;4.928;2023-06-14T13:04:18;2.20;;;1.80;;
14171;SDS011;7165;52.388;4.928;2023-06-14T13:06:45;4.65;;;1.65;;
14171;SDS011;7165;52.388;4.928;2023-06-14T13:09:12;2.55;;;1.60;;
14171;SDS011;7165;52.388;4.928;2023-06-14T13:11:40;3.40;;;1.98;;
14171;SDS011;7165;52.388;4.928;2023-06-14T13:14:10;3.70;;;1.73;;
14171;SDS011;7165;52.388;4.928;2023-06-14T13:16:37;4.80;;;2.17;;
14171;SDS011;7165;52.388;4.928;2023-06-14T13:19:05;3.47;;;1.75;;
14171;SDS011;7165;52.388;4.928;2023-06-14T13:21:32;2.53;;;1.52;;
14171;SDS011;7165;52.388;4.928;2023-06-14T13:23:58;1.95;;;1.70;;
14171;SDS011;7165;52.388;4.928;2023-06-14T13:26:25;2.10;;;1.95;;
14171;SDS011;7165;52.388;4.928;2023-06-14T13:28:52;3.13;;;1.90;;
14171;SDS011;7165;52.388;4.928;2023-06-14T13:31:18;2.08;;;1.38;;
14171;SDS011;7165;52.388;4.928;2023-06-14T13:33:45;3.58;;;1.90;;
14171;SDS011;7165;52.388;4.928;2023-06-14T13:36:14;4.43;;;1.90;;
14171;SDS011;7165;52.388;4.928;2023-06-14T13:38:41;2.17;;;1.98;;
14171;SDS011;7165;52.388;4.928;2023-06-14T13:41:07;4.68;;;1.90;;
14171;SDS011;7165;52.388;4.928;2023-06-14T13:43:34;1.90;;;1.73;;
14171;SDS011;7165;52.388;4.928;2023-06-14T13:46:01;3.88;;;1.77;;
14171;SDS011;7165;52.388;4.928;2023-06-14T13:48:27;2.40;;;1.60;;
14171;SDS011;7165;52.388;4.928;2023-06-14T13:50:54;1.88;;;1.75;;
14171;SDS011;7165;52.388;4.928;2023-06-14T13:53:23;3.55;;;2.05;;
14171;SDS011;7165;52.388;4.928;2023-06-14T13:55:50;4.53;;;2.00;;
14171;SDS011;7165;52.388;4.928;2023-06-14T13:58:17;2.22;;;1.95;;
14171;SDS011;7165;52.388;4.928;2023-06-14T14:00:44;2.60;;;2.00;;
14171;SDS011;7165;52.388;4.928;2023-06-14T14:03:11;3.08;;;2.03;;
14171;SDS011;7165;52.388;4.928;2023-06-14T14:05:38;3.65;;;2.20;;
14171;SDS011;7165;52.388;4.928;2023-06-14T14:08:04;2.08;;;1.88;;
14171;SDS011;7165;52.388;4.928;2023-06-14T14:10:32;2.75;;;1.80;;
14171;SDS011;7165;52.388;4.928;2023-06-14T14:12:59;2.88;;;2.05;;
14171;SDS011;7165;52.388;4.928;2023-06-14T14:15:26;1.80;;;1.70;;
14171;SDS011;7165;52.388;4.928;2023-06-14T14:17:53;2.55;;;1.80;;
14171;SDS011;7165;52.388;4.928;2023-06-14T14:20:22;3.72;;;1.92;;
14171;SDS011;7165;52.388;4.928;2023-06-14T14:22:49;2.22;;;2.00;;
14171;SDS011;7165;52.388;4.928;2023-06-14T14:25:15;2.17;;;1.98;;
14171;SDS011;7165;52.388;4.928;2023-06-14T14:27:44;2.42;;;2.22;;
14171;SDS011;7165;52.388;4.928;2023-06-14T14:30:11;2.85;;;1.90;;
14171;SDS011;7165;52.388;4.928;2023-06-14T14:32:38;3.90;;;1.98;;
14171;SDS011;7165;52.388;4.928;2023-06-14T14:35:06;2.42;;;2.08;;
14171;SDS011;7165;52.388;4.928;2023-06-14T14:37:33;2.50;;;2.05;;
14171;SDS011;7165;52.388;4.928;2023-06-14T14:40:00;3.88;;;1.75;;
14171;SDS011;7165;52.388;4.928;2023-06-14T14:42:28;3.33;;;1.90;;
14171;SDS011;7165;52.388;4.928;2023-06-14T14:44:56;2.28;;;1.73;;
14171;SDS011;7165;52.388;4.928;2023-06-14T14:47:23;3.80;;;1.95;;
14171;SDS011;7165;52.388;4.928;2023-06-14T14:49:49;3.60;;;2.20;;
14171;SDS011;7165;52.388;4.928;2023-06-14T14:52:16;5.20;;;2.45;;
14171;SDS011;7165;52.388;4.928;2023-06-14T14:54:43;1.85;;;1.75;;
14171;SDS011;7165;52.388;4.928;2023-06-14T14:57:09;3.40;;;1.92;;
14171;SDS011;7165;52.388;4.928;2023-06-14T15:06:58;3.58;;;2.05;;
14171;SDS011;7165;52.388;4.928;2023-06-14T15:09:24;3.95;;;1.98;;
14171;SDS011;7165;52.388;4.928;2023-06-14T15:11:51;2.25;;;1.80;;
14171;SDS011;7165;52.388;4.928;2023-06-14T15:14:17;2.17;;;1.67;;
14171;SDS011;7165;52.388;4.928;2023-06-14T15:16:44;1.73;;;1.63;;
14171;SDS011;7165;52.388;4.928;2023-06-14T15:19:12;1.98;;;1.77;;
14171;SDS011;7165;52.388;4.928;2023-06-14T15:21:39;3.00;;;1.88;;
14171;SDS011;7165;52.388;4.928;2023-06-14T15:24:06;3.22;;;2.08;;
14171;SDS011;7165;52.388;4.928;2023-06-14T15:26:33;3.70;;;2.35;;
14171;SDS011;7165;52.388;4.928;2023-06-14T15:29:00;3.42;;;1.85;;
14171;SDS011;7165;52.388;4.928;2023-06-14T15:31:26;2.83;;;1.92;;
14171;SDS011;7165;52.388;4.928;2023-06-14T15:36:21;2.10;;;1.83;;
14171;SDS011;7165;52.388;4.928;2023-06-14T15:38:48;3.15;;;1.90;;
14171;SDS011;7165;52.388;4.928;2023-06-14T15:41:15;3.67;;;2.00;;
14171;SDS011;7165;52.388;4.928;2023-06-14T15:43:41;5.00;;;1.80;;
14171;SDS011;7165;52.388;4.928;2023-06-14T15:46:08;2.97;;;1.95;;
14171;SDS011;7165;52.388;4.928;2023-06-14T15:48:35;3.33;;;1.63;;
14171;SDS011;7165;52.388;4.928;2023-06-14T15:51:01;3.63;;;1.90;;
14171;SDS011;7165;52.388;4.928;2023-06-14T15:53:30;2.83;;;1.95;;
14171;SDS011;7165;52.388;4.928;2023-06-14T15:55:56;3.40;;;2.10;;
14171;SDS011;7165;52.388;4.928;2023-06-14T15:58:23;2.00;;;1.90;;
14171;SDS011;7165;52.388;4.928;2023-06-14T16:00:49;3.78;;;1.95;;
14171;SDS011;7165;52.388;4.928;2023-06-14T16:03:16;1.95;;;1.75;;
14171;SDS011;7165;52.388;4.928;2023-06-14T16:05:43;6.65;;;1.65;;
14171;SDS011;7165;52.388;4.928;2023-06-14T16:08:09;2.00;;;1.80;;
14171;SDS011;7165;52.388;4.928;2023-06-14T16:10:38;2.80;;;1.83;;
14171;SDS011;7165;52.388;4.928;2023-06-14T16:13:04;2.85;;;1.88;;
14171;SDS011;7165;52.388;4.928;2023-06-14T16:15:31;2.40;;;2.00;;
14171;SDS011;7165;52.388;4.928;2023-06-14T16:17:58;6.40;;;2.00;;
14171;SDS011;7165;52.388;4.928;2023-06-14T16:20:25;2.95;;;2.00;;
14171;SDS011;7165;52.388;4.928;2023-06-14T16:22:52;6.13;;;2.30;;
14171;SDS011;7165;52.388;4.928;2023-06-14T16:25:18;1.90;;;1.75;;
14171;SDS011;7165;52.388;4.928;2023-06-14T16:27:47;2.47;;;1.77;;
14171;SDS011;7165;52.388;4.928;2023-06-14T16:30:15;4.53;;;1.60;;
14171;SDS011;7165;52.388;4.928;2023-06-14T16:32:42;2.40;;;1.60;;
14171;SDS011;7165;52.388;4.928;2023-06-14T16:35:08;2.38;;;1.77;;
14171;SDS011;7165;52.388;4.928;2023-06-14T16:37:35;2.53;;;1.63;;
14171;SDS011;7165;52.388;4.928;2023-06-14T16:40:02;4.43;;;1.80;;
14171;SDS011;7165;52.388;4.928;2023-06-14T16:42:29;3.53;;;1.92;;
14171;SDS011;7165;52.388;4.928;2023-06-14T16:44:57;2.10;;;1.75;;
14171;SDS011;7165;52.388;4.928;2023-06-14T16:47:25;3.03;;;1.77;;
14171;SDS011;7165;52.388;4.928;2023-06-14T16:49:52;3.45;;;1.83;;
14171;SDS011;7165;52.388;4.928;2023-06-14T16:52:18;2.10;;;1.65;;
14171;SDS011;7165;52.388;4.928;2023-06-14T16:54:45;3.63;;;1.77;;
14171;SDS011;7165;52.388;4.928;2023-06-14T16:57:12;1.77;;;1.67;;
14171;SDS011;7165;52.388;4.928;2023-06-14T16:59:38;1.33;;;1.20;;
14171;SDS011;7165;52.388;4.928;2023-06-14T17:02:07;2.70;;;1.60;;
14171;SDS011;7165;52.388;4.928;2023-06-14T17:04:34;2.63;;;2.13;;
14171;SDS011;7165;52.388;4.928;2023-06-14T17:07:00;3.58;;;2.25;;
14171;SDS011;7165;52.388;4.928;2023-06-14T17:09:28;2.28;;;1.58;;
14171;SDS011;7165;52.388;4.928;2023-06-14T17:11:55;2.03;;;1.60;;
14171;SDS011;7165;52.388;4.928;2023-06-14T17:14:22;2.83;;;1.98;;
14171;SDS011;7165;52.388;4.928;2023-06-14T17:16:49;3.40;;;2.35;;
14171;SDS011;7165;52.388;4.928;2023-06-14T17:19:17;2.88;;;1.73;;
14171;SDS011;7165;52.388;4.928;2023-06-14T17:21:43;3.70;;;1.55;;
14171;SDS011;7165;52.388;4.928;2023-06-14T17:24:14;2.67;;;2.00;;
14171;SDS011;7165;52.388;4.928;2023-06-14T17:26:40;3.28;;;1.75;;
14171;SDS011;7165;52.388;4.928;2023-06-14T17:29:07;2.70;;;1.77;;
14171;SDS011;7165;52.388;4.928;2023-06-14T17:31:34;2.85;;;2.25;;
14171;SDS011;7165;52.388;4.928;2023-06-14T17:34:00;2.10;;;1.67;;
14171;SDS011;7165;52.388;4.928;2023-06-14T17:36:29;1.60;;;1.50;;
14171;SDS011;7165;52.388;4.928;2023-06-14T17:38:55;1.60;;;1.50;;
14171;SDS011;7165;52.388;4.928;2023-06-14T17:41:22;3.13;;;1.45;;
14171;SDS011;7165;52.388;4.928;2023-06-14T17:43:49;1.40;;;1.30;;
14171;SDS011;7165;52.388;4.928;2023-06-14T17:46:17;1.27;;;1.17;;
14171;SDS011;7165;52.388;4.928;2023-06-14T17:48:43;1.67;;;1.27;;
14171;SDS011;7165;52.388;4.928;2023-06-14T17:51:10;1.45;;;1.30;;
14171;SDS011;7165;52.388;4.928;2023-06-14T17:53:38;2.30;;;1.50;;
14171;SDS011;7165;52.388;4.928;2023-06-14T17:56:04;2.28;;;1.52;;
14171;SDS011;7165;52.388;4.928;2023-06-14T17:58:31;1.80;;;1.70;;
14171;SDS011;7165;52.388;4.928;2023-06-14T18:00:58;3.20;;;1.58;;
14171;SDS011;7165;52.388;4.928;2023-06-14T18:03:25;3.35;;;1.38;;
14171;SDS011;7165;52.388;4.928;2023-06-14T18:05:51;1.63;;;1.52;;
14171;SDS011;7165;52.388;4.928;2023-06-14T18:08:18;2.03;;;1.40;;
14171;SDS011;7165;52.388;4.928;2023-06-14T18:10:46;3.22;;;2.05;;
14171;SDS011;7165;52.388;4.928;2023-06-14T18:13:14;2.33;;;1.65;;
14171;SDS011;7165;52.388;4.928;2023-06-14T18:15:40;4.18;;;1.90;;
14171;SDS011;7165;52.388;4.928;2023-06-14T18:18:07;1.60;;;1.50;;
14171;SDS011;7165;52.388;4.928;2023-06-14T18:20:34;3.60;;;2.03;;
14171;SDS011;7165;52.388;4.928;2023-06-14T18:23:01;2.58;;;1.75;;
14171;SDS011;7165;52.388;4.928;2023-06-14T18:25:28;3.15;;;1.67;;
14171;SDS011;7165;52.388;4.928;2023-06-14T18:27:56;2.65;;;1.63;;
14171;SDS011;7165;52.388;4.928;2023-06-14T18:30:22;1.50;;;1.40;;
14171;SDS011;7165;52.388;4.928;2023-06-14T18:32:49;2.35;;;1.65;;
14171;SDS011;7165;52.388;4.928;2023-06-14T18:35:16;3.85;;;1.80;;
14171;SDS011;7165;52.388;4.928;2023-06-14T18:37:43;1.80;;;1.70;;
14171;SDS011;7165;52.388;4.928;2023-06-14T18:40:10;3.88;;;1.60;;
14171;SDS011;7165;52.388;4.928;2023-06-14T18:42:38;1.70;;;1.60;;
14171;SDS011;7165;52.388;4.928;2023-06-14T18:45:07;1.45;;;1.35;;
14171;SDS011;7165;52.388;4.928;2023-06-14T18:47:34;1.55;;;1.45;;
14171;SDS011;7165;52.388;4.928;2023-06-14T18:50:01;2.00;;;1.90;;
14171;SDS011;7165;52.388;4.928;2023-06-14T18:52:28;1.55;;;1.45;;
14171;SDS011;7165;52.388;4.928;2023-06-14T18:54:54;3.90;;;1.70;;
14171;SDS011;7165;52.388;4.928;2023-06-14T18:57:21;1.75;;;1.60;;
14171;SDS011;7165;52.388;4.928;2023-06-14T18:59:47;2.05;;;1.67;;
14171;SDS011;7165;52.388;4.928;2023-06-14T19:02:15;4.43;;;2.35;;
14171;SDS011;7165;52.388;4.928;2023-06-14T19:04:42;2.00;;;1.90;;
14171;SDS011;7165;52.388;4.928;2023-06-14T19:07:09;1.92;;;1.58;;
14171;SDS011;7165;52.388;4.928;2023-06-14T19:09:36;3.38;;;1.83;;
14171;SDS011;7165;52.388;4.928;2023-06-14T19:12:03;2.72;;;1.60;;
14171;SDS011;7165;52.388;4.928;2023-06-14T19:14:30;1.75;;;1.65;;
14171;SDS011;7165;52.388;4.928;2023-06-14T19:16:57;2.25;;;1.40;;
14171;SDS011;7165;52.388;4.928;2023-06-14T19:19:25;3.22;;;1.63;;
14171;SDS011;7165;52.388;4.928;2023-06-14T19:21:51;2.95;;;1.90;;
14171;SDS011;7165;52.388;4.928;2023-06-14T19:24:18;2.13;;;1.92;;
14171;SDS011;7165;52.388;4.928;2023-06-14T19:26:44;2.75;;;1.73;;
14171;SDS011;7165;52.388;4.928;2023-06-14T19:29:11;2.40;;;1.70;;
14171;SDS011;7165;52.388;4.928;2023-06-14T19:31:38;3.13;;;1.38;;
14171;SDS011;7165;52.388;4.928;2023-06-14T19:34:05;2.08;;;1.60;;
14171;SDS011;7165;52.388;4.928;2023-06-14T19:36:33;2.05;;;1.85;;
14171;SDS011;7165;52.388;4.928;2023-06-14T19:39:00;2.15;;;1.25;;
14171;SDS011;7165;52.388;4.928;2023-06-14T19:41:26;1.55;;;1.45;;
14171;SDS011;7165;52.388;4.928;2023-06-14T19:43:55;1.70;;;1.60;;
14171;SDS011;7165;52.388;4.928;2023-06-14T19:46:22;3.20;;;1.92;;
14171;SDS011;7165;52.388;4.928;2023-06-14T19:48:50;2.65;;;1.85;;
14171;SDS011;7165;52.388;4.928;2023-06-14T19:51:17;4.38;;;2.28;;
14171;SDS011;7165;52.388;4.928;2023-06-14T19:53:45;2.28;;;2.15;;
14171;SDS011;7165;52.388;4.928;2023-06-14T19:56:13;2.28;;;1.52;;
14171;SDS011;7165;52.388;4.928;2023-06-14T19:58:40;2.25;;;2.05;;
14171;SDS011;7165;52.388;4.928;2023-06-14T20:01:06;2.45;;;1.90;;
14171;SDS011;7165;52.388;4.928;2023-06-14T20:03:33;2.42;;;2.22;;
14171;SDS011;7165;52.388;4.928;2023-06-14T20:06:00;2.25;;;1.90;;
14171;SDS011;7165;52.388;4.928;2023-06-14T20:08:27;1.90;;;1.77;;
14171;SDS011;7165;52.388;4.928;2023-06-14T20:10:57;2.28;;;2.08;;
14171;SDS011;7165;52.388;4.928;2023-06-14T20:13:23;4.38;;;1.80;;
14171;SDS011;7165;52.388;4.928;2023-06-14T20:15:50;3.40;;;2.30;;
14171;SDS011;7165;52.388;4.928;2023-06-14T20:18:20;3.28;;;2.22;;
14171;SDS011;7165;52.388;4.928;2023-06-14T20:20:48;3.67;;;2.10;;
14171;SDS011;7165;52.388;4.928;2023-06-14T20:23:15;2.80;;;1.88;;
14171;SDS011;7165;52.388;4.928;2023-06-14T20:25:42;2.83;;;2.63;;
14171;SDS011;7165;52.388;4.928;2023-06-14T20:28:10;3.35;;;2.92;;
14171;SDS011;7165;52.388;4.928;2023-06-14T20:30:37;3.35;;;3.05;;
14171;SDS011;7165;52.388;4.928;2023-06-14T20:33:03;3.58;;;3.28;;
14171;SDS011;7165;52.388;4.928;2023-06-14T20:35:30;5.15;;;4.22;;
14171;SDS011;7165;52.388;4.928;2023-06-14T20:37:57;5.35;;;4.38;;
14171;SDS011;7165;52.388;4.928;2023-06-14T20:40:24;5.22;;;4.70;;
14171;SDS011;7165;52.388;4.928;2023-06-14T20:42:51;7.32;;;4.95;;
14171;SDS011;7165;52.388;4.928;2023-06-14T20:45:23;6.78;;;4.32;;
14171;SDS011;7165;52.388;4.928;2023-06-14T20:47:50;4.82;;;4.32;;
14171;SDS011;7165;52.388;4.928;2023-06-14T20:50:18;4.70;;;3.72;;
14171;SDS011;7165;52.388;4.928;2023-06-14T20:52:45;4.55;;;4.15;;
14171;SDS011;7165;52.388;4.928;2023-06-14T20:55:12;3.53;;;3.22;;
14171;SDS011;7165;52.388;4.928;2023-06-14T20:57:40;4.35;;;3.83;;
14171;SDS011;7165;52.388;4.928;2023-06-14T21:00:07;4.53;;;3.42;;
14171;SDS011;7165;52.388;4.928;2023-06-14T21:02:37;4.25;;;3.85;;
14171;SDS011;7165;52.388;4.928;2023-06-14T21:05:04;4.43;;;3.20;;
14171;SDS011;7165;52.388;4.928;2023-06-14T21:07:32;3.60;;;3.30;;
14171;SDS011;7165;52.388;4.928;2023-06-14T21:09:59;3.20;;;2.90;;
14171;SDS011;7165;52.388;4.928;2023-06-14T21:12:26;3.35;;;3.05;;
14171;SDS011;7165;52.388;4.928;2023-06-14T21:14:53;3.45;;;2.67;;
14171;SDS011;7165;52.388;4.928;2023-06-14T21:17:19;3.67;;;3.15;;
14171;SDS011;7165;52.388;4.928;2023-06-14T21:19:47;3.50;;;2.65;;
14171;SDS011;7165;52.388;4.928;2023-06-14T21:22:14;2.80;;;2.58;;
14171;SDS011;7165;52.388;4.928;2023-06-14T21:24:41;3.10;;;2.90;;
14171;SDS011;7165;52.388;4.928;2023-06-14T21:27:07;2.80;;;2.60;;
14171;SDS011;7165;52.388;4.928;2023-06-14T21:29:34;2.78;;;2.33;;
14171;SDS011;7165;52.388;4.928;2023-06-14T21:32:01;3.00;;;2.40;;
14171;SDS011;7165;52.388;4.928;2023-06-14T21:34:27;2.42;;;2.33;;
14171;SDS011;7165;52.388;4.928;2023-06-14T21:36:55;3.03;;;2.70;;
14171;SDS011;7165;52.388;4.928;2023-06-14T21:39:22;7.20;;;2.65;;
14171;SDS011;7165;52.388;4.928;2023-06-14T21:41:49;2.58;;;2.38;;
14171;SDS011;7165;52.388;4.928;2023-06-14T21:44:17;2.90;;;2.70;;
14171;SDS011;7165;52.388;4.928;2023-06-14T21:46:43;3.35;;;2.67;;
14171;SDS011;7165;52.388;4.928;2023-06-14T22:38:33;4.65;;;4.20;;
